sensor_id;sensor_type;location;lat;lon;timestamp;P1;durP1;ratioP1;P2;durP2;ratioP2
24090;SDS011;12272;52.426;17.100;2023-08-21T00:00:33;14.63;;;11.85;;
24090;SDS011;12272;52.426;17.100;2023-08-21T00:05:35;12.77;;;10.10;;
24090;SDS011;12272;52.426;17.100;2023-08-21T00:10:38;10.30;;;8.73;;
24090;SDS011;12272;52.426;17.100;2023-08-21T00:15:42;11.00;;;9.85;;
24090;SDS011;12272;52.426;17.100;2023-08-21T00:20:45;9.10;;;8.20;;
24090;SDS011;12272;52.426;17.100;2023-08-21T00:25:48;7.88;;;7.07;;
24090;SDS011;12272;52.426;17.100;2023-08-21T00:30:50;6.70;;;6.05;;
24090;SDS011;12272;52.426;17.100;2023-08-21T00:35:53;8.05;;;7.18;;
24090;SDS011;12272;52.426;17.100;2023-08-21T00:40:55;8.52;;;7.30;;
24090;SDS011;12272;52.426;17.100;2023-08-21T00:45:59;12.48;;;7.88;;
24090;SDS011;12272;52.426;17.100;2023-08-21T00:51:02;8.77;;;7.30;;
24090;SDS011;12272;52.426;17.100;2023-08-21T00:56:06;10.00;;;8.98;;
24090;SDS011;12272;52.426;17.100;2023-08-21T01:01:09;9.63;;;8.63;;
24090;SDS011;12272;52.426;17.100;2023-08-21T01:06:13;10.30;;;9.07;;
24090;SDS011;12272;52.426;17.100;2023-08-21T01:11:25;9.55;;;8.52;;
24090;SDS011;12272;52.426;17.100;2023-08-21T01:16:44;8.70;;;7.80;;
24090;SDS011;12272;52.426;17.100;2023-08-21T01:21:53;10.38;;;7.15;;
24090;SDS011;12272;52.426;17.100;2023-08-21T01:26:56;7.53;;;6.72;;
24090;SDS011;12272;52.426;17.100;2023-08-21T01:32:05;8.10;;;7.30;;
24090;SDS011;12272;52.426;17.100;2023-08-21T01:37:11;8.02;;;7.22;;
24090;SDS011;12272;52.426;17.100;2023-08-21T01:42:15;8.40;;;6.63;;
24090;SDS011;12272;52.426;17.100;2023-08-21T01:47:17;9.25;;;6.90;;
24090;SDS011;12272;52.426;17.100;2023-08-21T01:52:20;7.38;;;6.68;;
24090;SDS011;12272;52.426;17.100;2023-08-21T01:57:22;6.65;;;6.05;;
24090;SDS011;12272;52.426;17.100;2023-08-21T02:02:25;6.85;;;6.20;;
24090;SDS011;12272;52.426;17.100;2023-08-21T02:07:28;6.43;;;5.70;;
24090;SDS011;12272;52.426;17.100;2023-08-21T02:12:31;8.70;;;7.45;;
24090;SDS011;12272;52.426;17.100;2023-08-21T02:17:33;9.05;;;6.78;;
24090;SDS011;12272;52.426;17.100;2023-08-21T02:22:36;6.10;;;5.50;;
24090;SDS011;12272;52.426;17.100;2023-08-21T02:27:39;5.90;;;5.30;;
24090;SDS011;12272;52.426;17.100;2023-08-21T02:32:41;7.07;;;6.38;;
24090;SDS011;12272;52.426;17.100;2023-08-21T02:37:44;7.85;;;6.93;;
24090;SDS011;12272;52.426;17.100;2023-08-21T02:42:46;8.30;;;7.50;;
24090;SDS011;12272;52.426;17.100;2023-08-21T02:47:49;7.47;;;5.95;;
24090;SDS011;12272;52.426;17.100;2023-08-21T02:52:52;8.20;;;6.10;;
24090;SDS011;12272;52.426;17.100;2023-08-21T02:57:54;8.02;;;6.30;;
24090;SDS011;12272;52.426;17.100;2023-08-21T03:02:57;6.70;;;5.63;;
24090;SDS011;12272;52.426;17.100;2023-08-21T03:08:00;5.97;;;5.13;;
24090;SDS011;12272;52.426;17.100;2023-08-21T03:13:02;10.20;;;6.07;;
24090;SDS011;12272;52.426;17.100;2023-08-21T03:18:05;9.25;;;5.90;;
24090;SDS011;12272;52.426;17.100;2023-08-21T03:23:08;6.68;;;5.82;;
24090;SDS011;12272;52.426;17.100;2023-08-21T03:28:10;5.75;;;5.18;;
24090;SDS011;12272;52.426;17.100;2023-08-21T03:33:14;6.35;;;5.50;;
24090;SDS011;12272;52.426;17.100;2023-08-21T03:38:18;8.13;;;5.57;;
24090;SDS011;12272;52.426;17.100;2023-08-21T03:43:21;6.47;;;5.88;;
24090;SDS011;12272;52.426;17.100;2023-08-21T03:48:24;6.57;;;5.07;;
24090;SDS011;12272;52.426;17.100;2023-08-21T03:53:27;6.40;;;5.80;;
24090;SDS011;12272;52.426;17.100;2023-08-21T03:58:30;6.47;;;5.85;;
24090;SDS011;12272;52.426;17.100;2023-08-21T04:03:33;6.32;;;5.75;;
24090;SDS011;12272;52.426;17.100;2023-08-21T04:08:37;6.70;;;6.07;;
24090;SDS011;12272;52.426;17.100;2023-08-21T04:13:39;6.00;;;5.40;;
24090;SDS011;12272;52.426;17.100;2023-08-21T04:18:42;6.32;;;5.63;;
24090;SDS011;12272;52.426;17.100;2023-08-21T04:23:45;7.60;;;5.78;;
24090;SDS011;12272;52.426;17.100;2023-08-21T04:28:48;6.93;;;6.20;;
24090;SDS011;12272;52.426;17.100;2023-08-21T04:33:51;9.55;;;6.88;;
24090;SDS011;12272;52.426;17.100;2023-08-21T04:38:54;8.55;;;7.07;;
24090;SDS011;12272;52.426;17.100;2023-08-21T04:43:57;8.38;;;6.65;;
24090;SDS011;12272;52.426;17.100;2023-08-21T04:49:00;8.35;;;7.55;;
24090;SDS011;12272;52.426;17.100;2023-08-21T04:54:03;10.40;;;7.93;;
24090;SDS011;12272;52.426;17.100;2023-08-21T04:59:06;7.05;;;6.22;;
24090;SDS011;12272;52.426;17.100;2023-08-21T05:04:09;6.68;;;6.07;;
24090;SDS011;12272;52.426;17.100;2023-08-21T05:09:12;6.82;;;6.13;;
24090;SDS011;12272;52.426;17.100;2023-08-21T05:14:14;6.80;;;5.75;;
24090;SDS011;12272;52.426;17.100;2023-08-21T05:19:17;5.63;;;5.10;;
24090;SDS011;12272;52.426;17.100;2023-08-21T05:24:20;6.30;;;5.70;;
24090;SDS011;12272;52.426;17.100;2023-08-21T05:29:31;5.78;;;5.22;;
24090;SDS011;12272;52.426;17.100;2023-08-21T05:34:34;7.82;;;5.18;;
24090;SDS011;12272;52.426;17.100;2023-08-21T05:39:37;9.38;;;5.50;;
24090;SDS011;12272;52.426;17.100;2023-08-21T05:44:41;7.00;;;4.68;;
24090;SDS011;12272;52.426;17.100;2023-08-21T05:49:44;8.32;;;5.30;;
24090;SDS011;12272;52.426;17.100;2023-08-21T05:54:46;5.85;;;5.10;;
24090;SDS011;12272;52.426;17.100;2023-08-21T05:59:49;6.85;;;4.63;;
24090;SDS011;12272;52.426;17.100;2023-08-21T06:04:52;4.13;;;3.75;;
24090;SDS011;12272;52.426;17.100;2023-08-21T06:09:57;12.23;;;4.68;;
24090;SDS011;12272;52.426;17.100;2023-08-21T06:15:00;6.80;;;5.22;;
24090;SDS011;12272;52.426;17.100;2023-08-21T06:20:03;5.40;;;4.30;;
24090;SDS011;12272;52.426;17.100;2023-08-21T06:25:10;6.22;;;5.10;;
24090;SDS011;12272;52.426;17.100;2023-08-21T06:30:14;5.38;;;4.35;;
24090;SDS011;12272;52.426;17.100;2023-08-21T06:35:19;6.03;;;4.63;;
24090;SDS011;12272;52.426;17.100;2023-08-21T06:40:21;5.68;;;3.83;;
24090;SDS011;12272;52.426;17.100;2023-08-21T06:45:24;5.28;;;4.53;;
24090;SDS011;12272;52.426;17.100;2023-08-21T06:50:30;6.60;;;4.35;;
24090;SDS011;12272;52.426;17.100;2023-08-21T06:55:33;4.72;;;4.00;;
24090;SDS011;12272;52.426;17.100;2023-08-21T07:00:35;4.18;;;3.78;;
24090;SDS011;12272;52.426;17.100;2023-08-21T07:05:38;5.47;;;3.53;;
24090;SDS011;12272;52.426;17.100;2023-08-21T07:10:41;4.43;;;4.03;;
24090;SDS011;12272;52.426;17.100;2023-08-21T07:15:44;4.93;;;3.40;;
24090;SDS011;12272;52.426;17.100;2023-08-21T07:20:51;4.70;;;4.20;;
24090;SDS011;12272;52.426;17.100;2023-08-21T07:25:55;5.75;;;2.78;;
24090;SDS011;12272;52.426;17.100;2023-08-21T07:30:58;5.32;;;3.97;;
24090;SDS011;12272;52.426;17.100;2023-08-21T07:36:01;4.18;;;3.13;;
24090;SDS011;12272;52.426;17.100;2023-08-21T07:41:08;5.25;;;3.67;;
24090;SDS011;12272;52.426;17.100;2023-08-21T07:46:12;4.22;;;2.92;;
24090;SDS011;12272;52.426;17.100;2023-08-21T07:51:18;3.80;;;3.40;;
24090;SDS011;12272;52.426;17.100;2023-08-21T07:56:20;4.28;;;3.90;;
24090;SDS011;12272;52.426;17.100;2023-08-21T08:01:23;5.05;;;3.35;;
24090;SDS011;12272;52.426;17.100;2023-08-21T08:06:25;6.53;;;3.75;;
24090;SDS011;12272;52.426;17.100;2023-08-21T08:11:28;8.00;;;4.10;;
24090;SDS011;12272;52.426;17.100;2023-08-21T08:16:31;5.30;;;3.85;;
24090;SDS011;12272;52.426;17.100;2023-08-21T08:21:36;4.30;;;3.90;;
24090;SDS011;12272;52.426;17.100;2023-08-21T08:26:38;4.93;;;4.30;;
24090;SDS011;12272;52.426;17.100;2023-08-21T08:31:42;5.32;;;3.80;;
24090;SDS011;12272;52.426;17.100;2023-08-21T08:36:45;5.32;;;3.25;;
24090;SDS011;12272;52.426;17.100;2023-08-21T08:41:51;3.60;;;3.22;;
24090;SDS011;12272;52.426;17.100;2023-08-21T08:46:59;3.85;;;3.40;;
24090;SDS011;12272;52.426;17.100;2023-08-21T08:52:03;4.40;;;4.00;;
24090;SDS011;12272;52.426;17.100;2023-08-21T08:57:06;4.25;;;3.50;;
24090;SDS011;12272;52.426;17.100;2023-08-21T09:02:09;4.97;;;4.53;;
24090;SDS011;12272;52.426;17.100;2023-08-21T09:07:12;3.42;;;3.13;;
24090;SDS011;12272;52.426;17.100;2023-08-21T09:12:14;3.83;;;3.45;;
24090;SDS011;12272;52.426;17.100;2023-08-21T09:17:18;4.47;;;3.83;;
24090;SDS011;12272;52.426;17.100;2023-08-21T09:22:21;6.90;;;3.55;;
24090;SDS011;12272;52.426;17.100;2023-08-21T09:27:24;6.80;;;3.28;;
24090;SDS011;12272;52.426;17.100;2023-08-21T09:32:27;3.35;;;3.10;;
24090;SDS011;12272;52.426;17.100;2023-08-21T09:37:29;5.15;;;3.67;;
24090;SDS011;12272;52.426;17.100;2023-08-21T09:42:33;4.00;;;2.80;;
24090;SDS011;12272;52.426;17.100;2023-08-21T09:47:36;5.60;;;2.97;;
24090;SDS011;12272;52.426;17.100;2023-08-21T09:52:42;4.35;;;3.05;;
24090;SDS011;12272;52.426;17.100;2023-08-21T09:57:45;5.55;;;2.88;;
24090;SDS011;12272;52.426;17.100;2023-08-21T10:02:50;5.57;;;3.42;;
24090;SDS011;12272;52.426;17.100;2023-08-21T10:07:53;3.92;;;3.42;;
24090;SDS011;12272;52.426;17.100;2023-08-21T10:12:58;7.38;;;2.88;;
24090;SDS011;12272;52.426;17.100;2023-08-21T10:18:17;5.40;;;2.85;;
24090;SDS011;12272;52.426;17.100;2023-08-21T10:23:27;6.90;;;3.63;;
24090;SDS011;12272;52.426;17.100;2023-08-21T10:28:47;3.25;;;2.90;;
24090;SDS011;12272;52.426;17.100;2023-08-21T10:33:50;3.55;;;2.70;;
24090;SDS011;12272;52.426;17.100;2023-08-21T10:39:00;4.55;;;3.40;;
24090;SDS011;12272;52.426;17.100;2023-08-21T10:44:05;4.55;;;3.17;;
24090;SDS011;12272;52.426;17.100;2023-08-21T10:49:08;3.90;;;3.60;;
24090;SDS011;12272;52.426;17.100;2023-08-21T10:54:11;3.97;;;3.40;;
24090;SDS011;12272;52.426;17.100;2023-08-21T10:59:15;3.95;;;3.63;;
24090;SDS011;12272;52.426;17.100;2023-08-21T11:04:18;6.78;;;2.85;;
24090;SDS011;12272;52.426;17.100;2023-08-21T11:09:20;6.18;;;3.28;;
24090;SDS011;12272;52.426;17.100;2023-08-21T11:14:26;3.92;;;3.53;;
24090;SDS011;12272;52.426;17.100;2023-08-21T11:19:32;8.90;;;4.03;;
24090;SDS011;12272;52.426;17.100;2023-08-21T11:24:42;7.05;;;3.55;;
24090;SDS011;12272;52.426;17.100;2023-08-21T11:29:49;4.93;;;3.25;;
24090;SDS011;12272;52.426;17.100;2023-08-21T11:34:55;4.30;;;3.05;;
24090;SDS011;12272;52.426;17.100;2023-08-21T11:39:59;6.88;;;3.95;;
24090;SDS011;12272;52.426;17.100;2023-08-21T11:45:09;4.43;;;3.30;;
24090;SDS011;12272;52.426;17.100;2023-08-21T11:50:13;5.72;;;3.50;;
24090;SDS011;12272;52.426;17.100;2023-08-21T11:55:20;4.20;;;3.80;;
24090;SDS011;12272;52.426;17.100;2023-08-21T12:00:27;4.30;;;3.47;;
24090;SDS011;12272;52.426;17.100;2023-08-21T12:05:31;4.65;;;2.75;;
24090;SDS011;12272;52.426;17.100;2023-08-21T12:10:33;5.30;;;2.85;;
24090;SDS011;12272;52.426;17.100;2023-08-21T12:15:36;3.33;;;2.92;;
24090;SDS011;12272;52.426;17.100;2023-08-21T12:20:39;5.55;;;2.53;;
24090;SDS011;12272;52.426;17.100;2023-08-21T12:25:41;4.88;;;2.80;;
24090;SDS011;12272;52.426;17.100;2023-08-21T12:30:44;4.47;;;3.13;;
24090;SDS011;12272;52.426;17.100;2023-08-21T12:35:46;3.67;;;2.50;;
24090;SDS011;12272;52.426;17.100;2023-08-21T12:40:49;3.95;;;2.83;;
24090;SDS011;12272;52.426;17.100;2023-08-21T12:45:52;2.75;;;2.55;;
24090;SDS011;12272;52.426;17.100;2023-08-21T12:50:54;6.07;;;4.03;;
24090;SDS011;12272;52.426;17.100;2023-08-21T12:55:57;4.68;;;3.28;;
24090;SDS011;12272;52.426;17.100;2023-08-21T13:01:00;3.33;;;2.50;;
24090;SDS011;12272;52.426;17.100;2023-08-21T13:06:02;3.25;;;2.75;;
24090;SDS011;12272;52.426;17.100;2023-08-21T13:11:05;3.20;;;2.00;;
24090;SDS011;12272;52.426;17.100;2023-08-21T13:16:07;2.63;;;2.22;;
24090;SDS011;12272;52.426;17.100;2023-08-21T13:21:10;3.42;;;2.25;;
24090;SDS011;12272;52.426;17.100;2023-08-21T13:26:12;4.07;;;2.60;;
24090;SDS011;12272;52.426;17.100;2023-08-21T13:31:15;4.25;;;2.65;;
24090;SDS011;12272;52.426;17.100;2023-08-21T13:36:18;2.60;;;2.40;;
24090;SDS011;12272;52.426;17.100;2023-08-21T13:41:26;4.25;;;2.70;;
24090;SDS011;12272;52.426;17.100;2023-08-21T13:46:28;5.18;;;3.00;;
24090;SDS011;12272;52.426;17.100;2023-08-21T13:51:31;2.78;;;2.53;;
24090;SDS011;12272;52.426;17.100;2023-08-21T13:56:34;4.10;;;2.45;;
24090;SDS011;12272;52.426;17.100;2023-08-21T14:01:37;4.22;;;2.75;;
24090;SDS011;12272;52.426;17.100;2023-08-21T14:06:41;5.57;;;2.97;;
24090;SDS011;12272;52.426;17.100;2023-08-21T14:11:44;2.78;;;2.55;;
24090;SDS011;12272;52.426;17.100;2023-08-21T14:16:49;5.32;;;2.45;;
24090;SDS011;12272;52.426;17.100;2023-08-21T14:22:20;2.92;;;2.15;;
24090;SDS011;12272;52.426;17.100;2023-08-21T14:27:23;4.32;;;3.92;;
24090;SDS011;12272;52.426;17.100;2023-08-21T14:32:25;5.78;;;3.10;;
24090;SDS011;12272;52.426;17.100;2023-08-21T14:37:28;3.75;;;3.05;;
24090;SDS011;12272;52.426;17.100;2023-08-21T14:42:31;3.70;;;2.78;;
24090;SDS011;12272;52.426;17.100;2023-08-21T14:47:33;8.45;;;3.67;;
24090;SDS011;12272;52.426;17.100;2023-08-21T14:52:38;3.78;;;3.47;;
24090;SDS011;12272;52.426;17.100;2023-08-21T14:57:40;3.97;;;2.33;;
24090;SDS011;12272;52.426;17.100;2023-08-21T15:02:43;5.80;;;3.78;;
24090;SDS011;12272;52.426;17.100;2023-08-21T15:07:46;4.10;;;2.60;;
24090;SDS011;12272;52.426;17.100;2023-08-21T15:12:49;2.63;;;2.38;;
24090;SDS011;12272;52.426;17.100;2023-08-21T15:17:51;4.40;;;3.15;;
24090;SDS011;12272;52.426;17.100;2023-08-21T15:22:54;2.03;;;1.83;;
24090;SDS011;12272;52.426;17.100;2023-08-21T15:27:57;4.38;;;2.63;;
24090;SDS011;12272;52.426;17.100;2023-08-21T15:32:59;3.70;;;3.40;;
24090;SDS011;12272;52.426;17.100;2023-08-21T15:38:02;2.90;;;2.70;;
24090;SDS011;12272;52.426;17.100;2023-08-21T15:43:05;3.63;;;3.10;;
24090;SDS011;12272;52.426;17.100;2023-08-21T15:48:09;5.32;;;3.85;;
24090;SDS011;12272;52.426;17.100;2023-08-21T15:53:12;9.05;;;4.13;;
24090;SDS011;12272;52.426;17.100;2023-08-21T15:58:16;5.38;;;3.78;;
24090;SDS011;12272;52.426;17.100;2023-08-21T16:03:18;4.88;;;4.15;;
24090;SDS011;12272;52.426;17.100;2023-08-21T16:08:21;3.92;;;3.55;;
24090;SDS011;12272;52.426;17.100;2023-08-21T16:13:24;5.72;;;4.18;;
24090;SDS011;12272;52.426;17.100;2023-08-21T16:18:26;4.53;;;4.07;;
24090;SDS011;12272;52.426;17.100;2023-08-21T16:23:29;6.70;;;4.85;;
24090;SDS011;12272;52.426;17.100;2023-08-21T16:28:31;6.07;;;3.75;;
24090;SDS011;12272;52.426;17.100;2023-08-21T16:33:34;5.38;;;3.72;;
24090;SDS011;12272;52.426;17.100;2023-08-21T16:38:38;4.30;;;3.55;;
24090;SDS011;12272;52.426;17.100;2023-08-21T16:43:41;6.80;;;4.07;;
24090;SDS011;12272;52.426;17.100;2023-08-21T16:48:44;6.07;;;3.50;;
24090;SDS011;12272;52.426;17.100;2023-08-21T16:53:46;10.23;;;4.78;;
24090;SDS011;12272;52.426;17.100;2023-08-21T16:58:49;8.23;;;4.35;;
24090;SDS011;12272;52.426;17.100;2023-08-21T17:03:51;6.55;;;3.55;;
24090;SDS011;12272;52.426;17.100;2023-08-21T17:08:54;4.22;;;3.28;;
24090;SDS011;12272;52.426;17.100;2023-08-21T17:13:57;5.75;;;3.58;;
24090;SDS011;12272;52.426;17.100;2023-08-21T17:18:59;5.22;;;4.20;;
24090;SDS011;12272;52.426;17.100;2023-08-21T17:24:02;7.97;;;4.15;;
24090;SDS011;12272;52.426;17.100;2023-08-21T17:29:04;5.93;;;3.97;;
24090;SDS011;12272;52.426;17.100;2023-08-21T17:34:07;7.82;;;3.17;;
24090;SDS011;12272;52.426;17.100;2023-08-21T17:39:11;5.22;;;3.38;;
24090;SDS011;12272;52.426;17.100;2023-08-21T17:44:14;4.97;;;4.43;;
24090;SDS011;12272;52.426;17.100;2023-08-21T17:49:16;7.50;;;3.90;;
24090;SDS011;12272;52.426;17.100;2023-08-21T17:54:32;10.48;;;5.18;;
24090;SDS011;12272;52.426;17.100;2023-08-21T17:59:34;6.43;;;4.63;;
24090;SDS011;12272;52.426;17.100;2023-08-21T18:04:37;6.40;;;4.07;;
24090;SDS011;12272;52.426;17.100;2023-08-21T18:09:41;5.75;;;4.45;;
24090;SDS011;12272;52.426;17.100;2023-08-21T18:14:44;7.78;;;4.22;;
24090;SDS011;12272;52.426;17.100;2023-08-21T18:19:46;7.47;;;4.30;;
24090;SDS011;12272;52.426;17.100;2023-08-21T18:24:49;7.00;;;4.60;;
24090;SDS011;12272;52.426;17.100;2023-08-21T18:29:51;7.22;;;5.20;;
24090;SDS011;12272;52.426;17.100;2023-08-21T18:34:54;8.85;;;4.97;;
24090;SDS011;12272;52.426;17.100;2023-08-21T18:39:56;10.35;;;4.28;;
24090;SDS011;12272;52.426;17.100;2023-08-21T18:44:59;6.53;;;5.43;;
24090;SDS011;12272;52.426;17.100;2023-08-21T18:50:01;7.90;;;4.72;;
24090;SDS011;12272;52.426;17.100;2023-08-21T18:55:05;10.60;;;5.40;;
24090;SDS011;12272;52.426;17.100;2023-08-21T19:00:08;9.20;;;4.60;;
24090;SDS011;12272;52.426;17.100;2023-08-21T19:05:14;6.40;;;4.95;;
24090;SDS011;12272;52.426;17.100;2023-08-21T19:10:16;7.82;;;4.57;;
24090;SDS011;12272;52.426;17.100;2023-08-21T19:15:20;7.65;;;4.60;;
24090;SDS011;12272;52.426;17.100;2023-08-21T19:20:22;10.20;;;4.43;;
24090;SDS011;12272;52.426;17.100;2023-08-21T19:25:26;14.50;;;5.43;;
24090;SDS011;12272;52.426;17.100;2023-08-21T19:30:33;9.35;;;5.32;;
24090;SDS011;12272;52.426;17.100;2023-08-21T19:35:37;9.45;;;4.32;;
24090;SDS011;12272;52.426;17.100;2023-08-21T19:40:39;10.75;;;4.60;;
24090;SDS011;12272;52.426;17.100;2023-08-21T19:45:52;6.63;;;4.78;;
24090;SDS011;12272;52.426;17.100;2023-08-21T19:50:56;9.88;;;4.50;;
24090;SDS011;12272;52.426;17.100;2023-08-21T19:55:59;7.35;;;4.75;;
24090;SDS011;12272;52.426;17.100;2023-08-21T20:01:05;5.50;;;4.93;;
24090;SDS011;12272;52.426;17.100;2023-08-21T20:06:11;6.57;;;5.35;;
24090;SDS011;12272;52.426;17.100;2023-08-21T20:11:16;4.55;;;3.25;;
24090;SDS011;12272;52.426;17.100;2023-08-21T20:16:19;5.35;;;3.08;;
24090;SDS011;12272;52.426;17.100;2023-08-21T20:21:22;6.80;;;3.85;;
24090;SDS011;12272;52.426;17.100;2023-08-21T20:26:25;7.45;;;4.03;;
24090;SDS011;12272;52.426;17.100;2023-08-21T20:31:31;7.25;;;3.25;;
24090;SDS011;12272;52.426;17.100;2023-08-21T20:36:34;3.40;;;3.10;;
24090;SDS011;12272;52.426;17.100;2023-08-21T20:41:38;6.32;;;2.67;;
24090;SDS011;12272;52.426;17.100;2023-08-21T20:46:42;4.78;;;2.75;;
24090;SDS011;12272;52.426;17.100;2023-08-21T20:51:45;4.53;;;3.15;;
24090;SDS011;12272;52.426;17.100;2023-08-21T20:56:47;8.52;;;2.63;;
24090;SDS011;12272;52.426;17.100;2023-08-21T21:01:50;3.67;;;3.08;;
24090;SDS011;12272;52.426;17.100;2023-08-21T21:06:54;8.98;;;2.78;;
24090;SDS011;12272;52.426;17.100;2023-08-21T21:11:57;3.38;;;2.45;;
24090;SDS011;12272;52.426;17.100;2023-08-21T21:16:59;3.30;;;2.50;;
24090;SDS011;12272;52.426;17.100;2023-08-21T21:22:02;3.03;;;2.30;;
24090;SDS011;12272;52.426;17.100;2023-08-21T21:27:07;4.15;;;2.55;;
24090;SDS011;12272;52.426;17.100;2023-08-21T21:32:19;2.45;;;2.22;;
24090;SDS011;12272;52.426;17.100;2023-08-21T21:37:22;4.63;;;2.75;;
24090;SDS011;12272;52.426;17.100;2023-08-21T21:42:26;6.30;;;3.35;;
24090;SDS011;12272;52.426;17.100;2023-08-21T21:47:30;4.22;;;2.92;;
24090;SDS011;12272;52.426;17.100;2023-08-21T21:52:32;4.25;;;3.42;;
24090;SDS011;12272;52.426;17.100;2023-08-21T21:57:35;5.38;;;2.95;;
24090;SDS011;12272;52.426;17.100;2023-08-21T22:02:37;9.40;;;3.38;;
24090;SDS011;12272;52.426;17.100;2023-08-21T22:07:43;2.80;;;2.50;;
24090;SDS011;12272;52.426;17.100;2023-08-21T22:12:45;5.10;;;3.10;;
24090;SDS011;12272;52.426;17.100;2023-08-21T22:17:48;7.15;;;2.83;;
24090;SDS011;12272;52.426;17.100;2023-08-21T22:22:51;2.70;;;2.20;;
24090;SDS011;12272;52.426;17.100;2023-08-21T22:27:54;3.05;;;2.10;;
24090;SDS011;12272;52.426;17.100;2023-08-21T22:32:57;3.85;;;2.67;;
24090;SDS011;12272;52.426;17.100;2023-08-21T22:38:00;4.70;;;2.50;;
24090;SDS011;12272;52.426;17.100;2023-08-21T22:43:03;3.92;;;2.85;;
24090;SDS011;12272;52.426;17.100;2023-08-21T22:48:06;5.38;;;3.28;;
24090;SDS011;12272;52.426;17.100;2023-08-21T22:53:08;4.47;;;2.83;;
24090;SDS011;12272;52.426;17.100;2023-08-21T22:58:11;6.45;;;2.58;;
24090;SDS011;12272;52.426;17.100;2023-08-21T23:03:13;4.18;;;2.92;;
24090;SDS011;12272;52.426;17.100;2023-08-21T23:08:16;2.85;;;2.65;;
24090;SDS011;12272;52.426;17.100;2023-08-21T23:13:19;2.30;;;2.10;;
24090;SDS011;12272;52.426;17.100;2023-08-21T23:18:21;2.97;;;2.47;;
24090;SDS011;12272;52.426;17.100;2023-08-21T23:23:25;4.45;;;2.45;;
24090;SDS011;12272;52.426;17.100;2023-08-21T23:28:28;7.10;;;3.08;;
24090;SDS011;12272;52.426;17.100;2023-08-21T23:33:32;5.68;;;2.75;;
24090;SDS011;12272;52.426;17.100;2023-08-21T23:38:34;3.28;;;2.47;;
24090;SDS011;12272;52.426;17.100;2023-08-21T23:43:37;3.25;;;2.05;;
24090;SDS011;12272;52.426;17.100;2023-08-21T23:48:40;2.95;;;2.40;;
24090;SDS011;12272;52.426;17.100;2023-08-21T23:53:44;4.20;;;2.97;;
24090;SDS011;12272;52.426;17.100;2023-08-21T23:58:46;5.18;;;2.90;;
